メインページ
METAR-TAF:

METAR-TAF

空港 :

ケルマーン, イラン

緯度: 30-15N, 経度: 056-58E, 海抜: 1748m

現時点の気象観測

当レポートは15分前の18:00(UTC)に作成
南/南西の風 4kt
気温 24°C
湿度 19%
気圧 1023 hPa
視程10km以上
1,500メートル以下は雲なし、積乱雲なし

METAR: OIKK 261800Z 20004KT CAVOK 24/M01 Q1022 A3021

時間: 22:45 (18:15 UTC)

予報

当レポートは45分前の17:30(UTC)に作成
予報は26日の 18時(UTC)から 27日の 24時(UTC)まで有効
の風 8kt
視程: 8000m
高度4000ftの雲はほとんどない
27日の 12時(UTC)から 27日の 18時(UTC)まで一時的に
北東の風 18kt
高度3500ftの雲はほとんどない, 積乱雲.
高度4000ftの雲は散在している
高度10000ftの千切れ雲あり

TAF: OIKK 261730Z 2618/2724 10008KT 8000 FEW040 TEMPO 2712/2718 05018KT FEW035CB SCT040 BKN100

4,000以上の空港の気象観測と天気予報(METAR報とTAF報)

利用可能な観測所は地図上に黄色い丸と赤い丸で示す。

丸の上にカーソルを重ねると観測所名を参照できる。

次にクリックすると気象観測と天気予報を参照できる。

マップの切り替え:黒色「×」印の緑ボタンをクリックして拡大、「-」印の緑ボタンをクリックして縮小、緑色の三角印をクリックして隣りの地図に切り替え


METAR-TAF: